Aeroporto :
LOGIN :

Iscrizione | Disclaimer

   EN    FR    IT 

 










Sommario :    VFR   VFR Marginale   IFR   IFR Intensivo   IFR Molto Intensivo
Visibilità : 
Base nubi : 
>= 8 km
>= 3000ft
5 / 8 km
1000 / 3000 ft
1500m / 5 km
500 / 1000 ft
800 / 1500m
200 / 500 ft
< 800m
< 200 ft
Simboli :   Temporali  Nebbia  Neve Forte  Precipitazioni Forti  Vento > 20 kt
SIGMETs :   Varie  Temporali  Ghiacco  Turbolenza  Onda orograficha  Ceneri Vulcaniche






- Altitudine del aeroporto : 614 ft
- Codice IATA : CRL


EBCI - Charleroi

ULTIMO METAR :
  • 230750Z 06008KT 6000 NSC 11/09 Q1016 NOSIG

METARs OBSOLETI :
  • 230720Z 06006KT 6000 NSC 11/09 Q1017 NOSIG
  • 230650Z 06008KT 6000 NSC 10/09 Q1016 NOSIG
  • 230620Z 08006KT 6000 NSC 11/09 Q1017 NOSIG
  • 230550Z 05007KT 8000 NSC 10/09 Q1017 NOSIG
  • 230520Z 06007KT 8000 NSC 10/09 Q1017 NOSIG

TAF TAF EBCI
Valido dal 23 a 06 ore il 24 a 12 ore UTC


230510Z 2306/2412 06006KT CAVOK
BECMG 2409/2412 20011KT



MetMap, La meteo Aeronautica in un colpo d'occhio ! - Copyright ORBIFLY Dicembre 2007 - Disclaimer

ORBIFLY MET'MAP TEAM :

Programmazione e sviluppo : Alexandra Zaïnal
Concezione e sviluppo : Baudouin d'Aumeries
Co-Programmazione e sviluppo : Marc-Olivier Méhu
Supporto tecnico e logistico : Manuel Goepfert
Aiuto per la traduzione : Arnaldo La Scala

Contatto : metmap@orbifly.com




FONTI E CREDITI :

   NOAA